createdAt,value
2023-03-04T00:00:09.208Z,97760.44
2023-03-04T00:02:38.475Z,97764.72
2023-03-04T00:05:07.053Z,97760.44
2023-03-04T00:07:34.872Z,97747.69
2023-03-04T00:10:04.180Z,97773.22
2023-03-04T00:12:36.229Z,97739.16
2023-03-04T00:15:05.428Z,97760.44
2023-03-04T00:17:33.199Z,97760.44
2023-03-04T00:20:02.482Z,97747.69
2023-03-04T00:22:30.224Z,97720.03
2023-03-04T00:24:57.993Z,97764.72
2023-03-04T00:27:25.791Z,97751.94
2023-03-04T00:29:53.535Z,97751.94
2023-03-04T00:32:21.444Z,97760.44
2023-03-04T00:34:49.436Z,97771.09
2023-03-04T00:37:18.621Z,97760.44
2023-03-04T00:39:46.513Z,97777.47
2023-03-04T00:42:14.284Z,97762.56
2023-03-04T00:44:42.073Z,97775.34
2023-03-04T00:47:10.025Z,97751.94
2023-03-04T00:49:37.952Z,97751.94
2023-03-04T00:52:05.719Z,97768.97
2023-03-04T00:54:35.103Z,97773.22
2023-03-04T00:57:02.838Z,97764.72
2023-03-04T00:59:30.777Z,97739.16
2023-03-04T01:01:58.563Z,97751.94
2023-03-04T01:04:26.468Z,97758.31
2023-03-04T01:06:54.639Z,97728.53
2023-03-04T01:09:22.404Z,97773.22
2023-03-04T01:11:51.681Z,97771.09
2023-03-04T01:14:19.761Z,97756.19
2023-03-04T01:16:47.640Z,97790.25
2023-03-04T01:19:15.603Z,97756.19
2023-03-04T01:21:43.511Z,97747.69
2023-03-04T01:24:11.263Z,97756.19
2023-03-04T01:26:39.140Z,97781.72
2023-03-04T01:29:08.395Z,97771.09
2023-03-04T01:31:36.169Z,97777.47
2023-03-04T01:34:03.990Z,97747.69
2023-03-04T01:36:31.775Z,97760.44
2023-03-04T01:38:59.577Z,97764.72
2023-03-04T01:41:28.181Z,97807.25
2023-03-04T01:43:57.100Z,97773.22
2023-03-04T01:46:26.595Z,97764.72
2023-03-04T01:48:54.588Z,97737.03
2023-03-04T01:51:22.574Z,97749.81
2023-03-04T01:53:53.251Z,97739.16
2023-03-04T01:56:24.154Z,97758.31
2023-03-04T01:59:10.766Z,97760.44
2023-03-04T02:01:41.546Z,97773.22
2023-03-04T02:04:09.556Z,97773.22
2023-03-04T02:06:38.344Z,97762.56
2023-03-04T02:09:06.889Z,97730.66
2023-03-04T02:11:34.945Z,97775.34
2023-03-04T02:14:02.852Z,97773.22
2023-03-04T02:16:30.638Z,97734.91
2023-03-04T02:19:00.220Z,97741.28
2023-03-04T02:21:29.217Z,97773.22
2023-03-04T02:24:03.476Z,97766.84
2023-03-04T02:26:33.779Z,97724.28
2023-03-04T02:29:02.362Z,97768.97
2023-03-04T02:31:33.660Z,97788.13
2023-03-04T02:34:04.041Z,97756.19
2023-03-04T02:36:32.448Z,97754.06
2023-03-04T02:39:03.887Z,97722.16
2023-03-04T02:41:33.264Z,97758.31
2023-03-04T02:44:01.068Z,97756.19
2023-03-04T02:46:28.877Z,97756.19
2023-03-04T02:48:56.732Z,97754.06
2023-03-04T02:51:24.515Z,97717.88
2023-03-04T02:53:52.380Z,97785.97
2023-03-04T02:56:20.143Z,97756.19
2023-03-04T02:58:49.300Z,97741.28
2023-03-04T03:01:17.092Z,97758.31
2023-03-04T03:03:44.932Z,97773.22
2023-03-04T03:06:12.870Z,97741.28
2023-03-04T03:08:40.618Z,97749.81
2023-03-04T03:11:09.404Z,97751.94
2023-03-04T03:13:37.274Z,97762.56
2023-03-04T03:16:07.038Z,97730.66
2023-03-04T03:18:34.866Z,97790.25
2023-03-04T03:21:02.628Z,97739.16
2023-03-04T03:23:30.408Z,97756.19
2023-03-04T03:25:58.350Z,97762.56
2023-03-04T03:28:26.142Z,97760.44
2023-03-04T03:30:53.937Z,97781.72
2023-03-04T03:33:23.136Z,97734.91
2023-03-04T03:35:51.065Z,97768.97
2023-03-04T03:38:18.933Z,97790.25
2023-03-04T03:40:46.819Z,97728.53
2023-03-04T03:43:14.884Z,97726.41
2023-03-04T03:45:42.662Z,97739.16
2023-03-04T03:48:10.536Z,97715.75
2023-03-04T03:50:39.674Z,97758.31
2023-03-04T03:53:07.576Z,97747.69
2023-03-04T03:55:35.327Z,97749.81
2023-03-04T03:58:03.068Z,97747.69
2023-03-04T04:00:30.897Z,97730.66
2023-03-04T04:02:59.801Z,97730.66
2023-03-04T04:05:27.635Z,97771.09
2023-03-04T04:07:57.240Z,97728.53
2023-03-04T04:10:25.146Z,97773.22
2023-03-04T04:12:53.349Z,97715.75
2023-03-04T04:15:21.393Z,97777.47
2023-03-04T04:17:49.252Z,97730.66
2023-03-04T04:20:17.311Z,97790.25
2023-03-04T04:22:45.075Z,97781.72
2023-03-04T04:25:14.300Z,97764.72
2023-03-04T04:27:42.142Z,97764.72
2023-03-04T04:30:11.308Z,97756.19
2023-03-04T04:32:39.215Z,97758.31
2023-03-04T04:35:08.259Z,97717.88
2023-03-04T04:37:36.050Z,97722.16
2023-03-04T04:40:05.502Z,97756.19
2023-03-04T04:42:34.668Z,97751.94
2023-03-04T04:45:02.388Z,97768.97
2023-03-04T04:47:30.262Z,97728.53
2023-03-04T04:49:58.066Z,97777.47
2023-03-04T04:52:25.849Z,97764.72
2023-03-04T04:54:53.788Z,97751.94
2023-03-04T04:57:21.588Z,97675.34
2023-03-04T04:59:51.111Z,97745.56
2023-03-04T05:02:18.955Z,97730.66
2023-03-04T05:04:46.748Z,97760.44
2023-03-04T05:07:14.596Z,97790.25
2023-03-04T05:09:42.393Z,97749.81
2023-03-04T05:12:10.237Z,97737.03
2023-03-04T05:14:38.566Z,97724.28
2023-03-04T05:17:07.746Z,97741.28
2023-03-04T05:19:35.636Z,97705.13
2023-03-04T05:22:03.426Z,97728.53
2023-03-04T05:24:31.222Z,97734.91
2023-03-04T05:26:59.196Z,97832.81
2023-03-04T05:29:27.052Z,97747.69
2023-03-04T05:31:55.042Z,97730.66
2023-03-04T05:34:24.216Z,97700.88
2023-03-04T05:36:52.123Z,97739.16
2023-03-04T05:39:19.915Z,97764.72
2023-03-04T05:41:47.702Z,97730.66
2023-03-04T05:44:15.459Z,97713.63
2023-03-04T05:46:43.259Z,97673.19
2023-03-04T05:49:11.137Z,97771.09
2023-03-04T05:51:40.307Z,97713.63
2023-03-04T05:54:08.129Z,97707.25
2023-03-04T05:56:36.005Z,97726.41
2023-03-04T05:59:03.758Z,97749.81
2023-03-04T06:01:31.610Z,97720.03
2023-03-04T06:03:59.560Z,97679.59
2023-03-04T06:06:27.390Z,97730.66
2023-03-04T06:08:56.528Z,97688.09
2023-03-04T06:11:24.412Z,97732.78
2023-03-04T06:13:52.246Z,97779.59
2023-03-04T06:16:20.532Z,97715.75
2023-03-04T06:18:48.457Z,97734.91
2023-03-04T06:21:16.333Z,97730.66
2023-03-04T06:23:45.138Z,97715.75
2023-03-04T06:26:15.760Z,97700.88
2023-03-04T06:28:44.222Z,97734.91
2023-03-04T06:31:21.717Z,97720.03
2023-03-04T06:33:49.675Z,97698.75
2023-03-04T06:36:17.702Z,97611.50
2023-03-04T06:38:45.454Z,97726.41
2023-03-04T06:41:14.911Z,97688.09
2023-03-04T06:43:42.940Z,97711.50
2023-03-04T06:46:10.848Z,97724.28
2023-03-04T06:48:38.651Z,97707.25
2023-03-04T06:51:07.911Z,97713.63
2023-03-04T06:53:36.052Z,97705.13
2023-03-04T06:56:03.865Z,97713.63
2023-03-04T06:58:33.531Z,97683.84
2023-03-04T07:01:12.010Z,97732.78
2023-03-04T07:03:40.976Z,97847.69
2023-03-04T07:06:10.299Z,97700.88
2023-03-04T07:08:38.327Z,97700.88
2023-03-04T07:11:06.683Z,97696.59
2023-03-04T07:13:38.420Z,97696.59
2023-03-04T07:16:07.540Z,97688.09
2023-03-04T07:18:35.900Z,97717.88
2023-03-04T07:21:03.770Z,97692.34
2023-03-04T07:23:31.576Z,97709.38
2023-03-04T07:26:00.209Z,97673.19
2023-03-04T07:28:28.475Z,97683.84
2023-03-04T07:30:57.938Z,97666.81
2023-03-04T07:33:26.118Z,97679.59
2023-03-04T07:36:00.488Z,97677.47
2023-03-04T07:38:28.801Z,97664.69
2023-03-04T07:40:57.596Z,97658.31
2023-03-04T07:43:25.569Z,97726.41
2023-03-04T07:45:53.567Z,97688.09
2023-03-04T07:48:23.417Z,97692.34
2023-03-04T07:51:07.443Z,97611.50
2023-03-04T07:53:35.857Z,97671.06
2023-03-04T07:56:03.871Z,97666.81
2023-03-04T07:58:32.089Z,97692.34
2023-03-04T08:01:00.034Z,97692.34
2023-03-04T08:03:29.831Z,97639.16
2023-03-04T08:05:57.765Z,97645.53
2023-03-04T08:08:25.543Z,97671.06
2023-03-04T08:10:53.373Z,97675.34
2023-03-04T08:13:21.345Z,97668.94
2023-03-04T08:15:49.250Z,97679.59
2023-03-04T08:18:17.126Z,97679.59
2023-03-04T08:20:46.749Z,97696.59
2023-03-04T08:23:14.579Z,97664.69
2023-03-04T08:25:42.973Z,97654.06
2023-03-04T08:28:13.063Z,97662.56
2023-03-04T08:30:41.424Z,97637.03
2023-03-04T08:33:10.130Z,97696.59
2023-03-04T08:35:39.382Z,97643.41
2023-03-04T08:38:09.599Z,97666.81
2023-03-04T08:40:37.348Z,97690.22
2023-03-04T08:43:05.212Z,97675.34
2023-03-04T08:45:32.987Z,97662.56
2023-03-04T08:48:00.776Z,97662.56
2023-03-04T08:50:30.121Z,97664.69
2023-03-04T08:52:57.906Z,97671.06
2023-03-04T08:55:27.069Z,97637.03
2023-03-04T08:57:55.056Z,97692.34
2023-03-04T09:00:31.083Z,97658.31
2023-03-04T09:02:58.873Z,97813.66
2023-03-04T09:05:26.670Z,97677.47
2023-03-04T09:07:55.477Z,97698.75
2023-03-04T09:10:23.258Z,97660.44
2023-03-04T09:12:52.661Z,97632.78
2023-03-04T09:15:22.374Z,97656.19
2023-03-04T09:17:50.171Z,97658.31
2023-03-04T09:20:17.961Z,97620.00
2023-03-04T09:22:45.969Z,97641.28
2023-03-04T09:25:15.850Z,97641.28
2023-03-04T09:27:43.775Z,97647.66
2023-03-04T09:30:16.674Z,97730.66
2023-03-04T09:32:44.488Z,97671.06
2023-03-04T09:35:12.281Z,97654.06
2023-03-04T09:37:41.629Z,97634.91
2023-03-04T09:40:13.164Z,97641.28
2023-03-04T09:42:47.469Z,97660.44
2023-03-04T09:45:20.287Z,97632.78
2023-03-04T09:47:49.159Z,97634.91
2023-03-04T09:50:17.174Z,97688.09
2023-03-04T09:52:53.914Z,97602.97
2023-03-04T09:55:25.238Z,97645.53
2023-03-04T09:57:55.459Z,97568.94
2023-03-04T10:00:26.333Z,97575.31
2023-03-04T10:03:14.100Z,97628.53
2023-03-04T10:05:45.805Z,97651.94
2023-03-04T10:08:28.856Z,97630.66
2023-03-04T10:11:00.800Z,97645.53
2023-03-04T10:13:33.252Z,97620.00
2023-03-04T10:16:07.129Z,97626.38
2023-03-04T10:18:38.051Z,97622.13
2023-03-04T10:21:10.479Z,97634.91
2023-03-04T10:23:38.246Z,97628.53
2023-03-04T10:26:13.875Z,97624.25
2023-03-04T10:28:41.965Z,97622.13
2023-03-04T10:31:18.488Z,97607.25
2023-03-04T10:33:46.254Z,97598.72
2023-03-04T10:36:34.273Z,97624.25
2023-03-04T10:39:04.873Z,97605.13
2023-03-04T10:41:33.291Z,97605.13
2023-03-04T10:44:06.887Z,97654.06
2023-03-04T10:46:39.218Z,97592.34
2023-03-04T10:49:07.214Z,97613.63
2023-03-04T10:51:43.831Z,97611.50
2023-03-04T10:54:21.850Z,97596.59
2023-03-04T10:56:57.762Z,97628.53
2023-03-04T10:59:40.575Z,97609.38
2023-03-04T11:02:28.450Z,97577.44
2023-03-04T11:05:11.263Z,97637.03
2023-03-04T11:07:54.479Z,97598.72
2023-03-04T11:10:24.869Z,97605.13
2023-03-04T11:12:57.069Z,97566.81
2023-03-04T11:15:27.485Z,97568.94
2023-03-04T11:17:59.738Z,97609.38
2023-03-04T11:20:32.212Z,97590.22
2023-03-04T11:23:04.484Z,97609.38
2023-03-04T11:25:34.949Z,97568.94
2023-03-04T11:28:05.265Z,97558.28
2023-03-04T11:30:40.786Z,97581.72
2023-03-04T11:33:17.590Z,97611.50
2023-03-04T11:35:54.901Z,97543.41
2023-03-04T11:38:26.122Z,97558.28
2023-03-04T11:40:55.576Z,97551.91
2023-03-04T11:43:26.493Z,97558.28
2023-03-04T11:46:08.220Z,97692.34
2023-03-04T11:48:47.164Z,97558.28
2023-03-04T11:51:21.470Z,97554.03
2023-03-04T11:53:56.739Z,97530.63
2023-03-04T11:56:31.974Z,97547.66
2023-03-04T11:59:37.987Z,97545.53
2023-03-04T12:02:19.410Z,97524.25
2023-03-04T12:05:21.632Z,97543.41
2023-03-04T12:08:14.073Z,97575.31
2023-03-04T12:10:46.350Z,97534.91
2023-03-04T12:13:28.399Z,97671.06
2023-03-04T12:16:02.176Z,97534.91
2023-03-04T12:18:39.848Z,97517.88
2023-03-04T12:21:19.220Z,97396.59
2023-03-04T12:24:13.088Z,97492.34
2023-03-04T12:26:44.160Z,97509.34
2023-03-04T12:29:16.102Z,97547.66
2023-03-04T12:31:45.199Z,97571.06
2023-03-04T12:34:35.134Z,97539.16
2023-03-04T12:37:25.717Z,97496.59
2023-03-04T12:40:09.252Z,97502.97
2023-03-04T12:42:42.808Z,97468.94
2023-03-04T12:45:21.662Z,97530.63
2023-03-04T12:47:57.669Z,97575.31
2023-03-04T12:50:32.861Z,97539.16
2023-03-04T12:53:07.853Z,97517.88
2023-03-04T12:55:39.385Z,97532.75
2023-03-04T12:58:08.112Z,97537.03
2023-03-04T13:00:45.178Z,97541.28
2023-03-04T13:03:16.610Z,97432.75
2023-03-04T13:05:58.659Z,97558.28
2023-03-04T13:08:32.712Z,97543.41
2023-03-04T13:11:05.018Z,97564.69
2023-03-04T13:13:38.934Z,97549.78
2023-03-04T13:16:08.740Z,97547.66
2023-03-04T13:18:39.375Z,97520.00
2023-03-04T13:21:22.271Z,97511.50
2023-03-04T13:23:51.763Z,97526.38
2023-03-04T13:26:25.278Z,97517.88
2023-03-04T13:28:55.164Z,97539.16
2023-03-04T13:31:30.178Z,97522.13
2023-03-04T13:34:03.205Z,97496.59
2023-03-04T13:37:26.479Z,97530.63
2023-03-04T13:40:28.402Z,97526.38
2023-03-04T13:43:27.334Z,97496.59
2023-03-04T13:45:55.580Z,97558.28
2023-03-04T13:48:32.813Z,97526.38
2023-03-04T13:51:01.151Z,97526.38
2023-03-04T13:53:42.438Z,97530.63
2023-03-04T13:56:27.084Z,97530.63
2023-03-04T13:59:13.701Z,97488.06
2023-03-04T14:01:59.895Z,97524.25
2023-03-04T14:04:36.221Z,97530.63
2023-03-04T14:07:19.835Z,97517.88
2023-03-04T14:09:56.408Z,97479.56
2023-03-04T14:12:24.350Z,97520.00
2023-03-04T14:14:55.193Z,97513.63
2023-03-04T14:17:26.378Z,97522.13
2023-03-04T14:19:54.326Z,97415.72
2023-03-04T14:22:25.397Z,97485.94
2023-03-04T14:25:01.343Z,97475.31
2023-03-04T14:27:30.328Z,97454.03
2023-03-04T14:32:59.682Z,97488.06
2023-03-04T14:35:30.274Z,97479.56
2023-03-04T14:38:02.608Z,97477.44
2023-03-04T14:40:30.701Z,97437.00
2023-03-04T14:43:01.934Z,97445.53
2023-03-04T14:45:32.511Z,97505.09
2023-03-04T14:48:02.967Z,97479.56
2023-03-04T14:50:30.842Z,97437.00
2023-03-04T14:53:18.785Z,97439.13
2023-03-04T14:56:00.822Z,97462.53
2023-03-04T14:58:29.756Z,97451.91
2023-03-04T15:01:16.382Z,97626.38
2023-03-04T15:03:45.830Z,97454.03
2023-03-04T15:06:18.253Z,97437.00
2023-03-04T15:08:47.938Z,97449.78
2023-03-04T15:11:24.229Z,97471.06
2023-03-04T15:13:54.883Z,97498.72
2023-03-04T15:16:26.621Z,97488.06
2023-03-04T15:18:55.547Z,97445.53
2023-03-04T15:21:33.777Z,97462.53
2023-03-04T15:24:03.329Z,97462.53
2023-03-04T15:26:31.662Z,97585.97
2023-03-04T15:28:59.796Z,97411.47
2023-03-04T15:31:30.325Z,97441.28
2023-03-04T15:33:58.110Z,97483.81
2023-03-04T15:36:26.271Z,97507.22
2023-03-04T15:38:54.471Z,97466.81
2023-03-04T15:41:24.875Z,97458.28
2023-03-04T15:43:53.649Z,97351.91
2023-03-04T15:46:22.038Z,97439.13
2023-03-04T15:48:51.407Z,97509.34
2023-03-04T15:51:22.194Z,97477.44
2023-03-04T15:53:52.183Z,97543.41
2023-03-04T15:56:21.850Z,97526.38
2023-03-04T15:58:54.966Z,97526.38
2023-03-04T16:01:23.568Z,97543.41
2023-03-04T16:03:53.977Z,97579.56
2023-03-04T16:06:23.500Z,97554.03
2023-03-04T16:08:53.162Z,97598.72
2023-03-04T16:11:22.711Z,97573.19
2023-03-04T16:13:51.071Z,97605.13
2023-03-04T16:16:19.564Z,97605.13
2023-03-04T16:18:47.362Z,97615.75
2023-03-04T16:21:18.706Z,97592.34
2023-03-04T16:23:48.791Z,97549.78
2023-03-04T16:26:26.910Z,97520.00
2023-03-04T16:28:55.955Z,97558.28
2023-03-04T16:31:23.995Z,97609.38
2023-03-04T16:33:51.807Z,97581.72
2023-03-04T16:36:24.467Z,97577.44
2023-03-04T16:38:52.985Z,97605.13
2023-03-04T16:41:24.428Z,97594.47
2023-03-04T16:43:52.240Z,97613.63
2023-03-04T16:46:20.161Z,97615.75
2023-03-04T16:48:48.712Z,97647.66
2023-03-04T16:51:18.347Z,97602.97
2023-03-04T16:53:55.060Z,97611.50
2023-03-04T16:56:24.173Z,97637.03
2023-03-04T16:58:54.082Z,97626.38
2023-03-04T17:01:24.405Z,97615.75
2023-03-04T17:03:52.789Z,97645.53
2023-03-04T17:06:20.779Z,97615.75
2023-03-04T17:08:50.312Z,97645.53
2023-03-04T17:11:22.223Z,97602.97
2023-03-04T17:13:50.132Z,97632.78
2023-03-04T17:16:19.345Z,97611.50
2023-03-04T17:18:47.310Z,97651.94
2023-03-04T17:21:17.194Z,97620.00
2023-03-04T17:23:46.727Z,97583.84
2023-03-04T17:26:16.740Z,97632.78
2023-03-04T17:28:44.616Z,97637.03
2023-03-04T17:31:14.628Z,97628.53
2023-03-04T17:33:43.755Z,97609.38
2023-03-04T17:36:12.328Z,97637.03
2023-03-04T17:38:40.755Z,97573.19
2023-03-04T17:41:13.384Z,97611.50
2023-03-04T17:43:44.327Z,97615.75
2023-03-04T17:46:14.674Z,97654.06
2023-03-04T17:48:43.258Z,97607.25
2023-03-04T17:51:11.654Z,97630.66
2023-03-04T17:53:39.950Z,97658.31
2023-03-04T17:56:09.894Z,97620.00
2023-03-04T17:58:38.006Z,97609.38
2023-03-04T18:01:11.237Z,97632.78
2023-03-04T18:03:39.039Z,97611.50
2023-03-04T18:06:07.182Z,97624.25
2023-03-04T18:08:34.990Z,97620.00
2023-03-04T18:11:02.750Z,97613.63
2023-03-04T18:13:33.442Z,97620.00
2023-03-04T18:16:01.348Z,97628.53
2023-03-04T18:18:30.567Z,97624.25
2023-03-04T18:20:59.462Z,97649.78
2023-03-04T18:23:27.867Z,97643.41
2023-03-04T18:25:56.397Z,97645.53
2023-03-04T18:28:24.300Z,97639.16
2023-03-04T18:30:52.236Z,97632.78
2023-03-04T18:33:21.306Z,97637.03
2023-03-04T18:35:50.681Z,97637.03
2023-03-04T18:38:18.498Z,97651.94
2023-03-04T18:40:47.430Z,97607.25
2023-03-04T18:43:15.168Z,97654.06
2023-03-04T18:45:42.935Z,97634.91
2023-03-04T18:48:11.495Z,97658.31
2023-03-04T18:50:39.258Z,97620.00
2023-03-04T18:53:08.408Z,97647.66
2023-03-04T18:55:37.611Z,97613.63
2023-03-04T18:58:05.538Z,97658.31
2023-03-04T19:00:33.410Z,97645.53
2023-03-04T19:03:03.907Z,97615.75
2023-03-04T19:05:36.304Z,97539.16
2023-03-04T19:08:04.929Z,97626.38
2023-03-04T19:10:34.223Z,97683.84
2023-03-04T19:13:02.698Z,97620.00
2023-03-04T19:15:36.170Z,97649.78
2023-03-04T19:18:05.609Z,97664.69
2023-03-04T19:20:33.481Z,97677.47
2023-03-04T19:23:01.319Z,97692.34
2023-03-04T19:25:30.237Z,97679.59
2023-03-04T19:28:00.971Z,97664.69
2023-03-04T19:30:29.160Z,97690.22
2023-03-04T19:32:57.407Z,97679.59
2023-03-04T19:35:25.241Z,97826.41
2023-03-04T19:37:53.115Z,97709.38
2023-03-04T19:40:23.256Z,97696.59
2023-03-04T19:42:51.230Z,97679.59
2023-03-04T19:45:20.536Z,97622.13
2023-03-04T19:47:50.586Z,97683.84
2023-03-04T19:50:19.160Z,97739.16
2023-03-04T19:52:47.074Z,97726.41
2023-03-04T19:55:16.110Z,97645.53
2023-03-04T19:57:44.021Z,97713.63
2023-03-04T20:00:13.417Z,97673.19
2023-03-04T20:02:46.080Z,97730.66
2023-03-04T20:05:13.909Z,97713.63
2023-03-04T20:07:41.876Z,97658.31
2023-03-04T20:10:13.721Z,97711.50
2023-03-04T20:12:42.261Z,97728.53
2023-03-04T20:15:10.570Z,97709.38
2023-03-04T20:17:40.905Z,97726.41
2023-03-04T20:20:12.489Z,97671.06
2023-03-04T20:22:40.349Z,97726.41
2023-03-04T20:25:17.638Z,97722.16
2023-03-04T20:27:45.464Z,97683.84
2023-03-04T20:30:14.363Z,97694.47
2023-03-04T20:32:42.691Z,97715.75
2023-03-04T20:35:14.985Z,97726.41
2023-03-04T20:37:43.198Z,97675.34
2023-03-04T20:40:12.733Z,97715.75
2023-03-04T20:42:41.914Z,97705.13
2023-03-04T20:45:10.489Z,97941.34
2023-03-04T20:47:39.691Z,97724.28
2023-03-04T20:50:16.559Z,97749.81
2023-03-04T20:52:47.002Z,97732.78
2023-03-04T20:55:15.020Z,97754.06
2023-03-04T20:57:44.589Z,97717.88
2023-03-04T21:00:13.969Z,97745.56
2023-03-04T21:02:41.988Z,97760.44
2023-03-04T21:05:11.707Z,97739.16
2023-03-04T21:07:40.082Z,97739.16
2023-03-04T21:10:10.292Z,97768.97
2023-03-04T21:12:38.146Z,97711.50
2023-03-04T21:15:07.374Z,97754.06
2023-03-04T21:17:35.372Z,97760.44
2023-03-04T21:20:06.837Z,97790.25
2023-03-04T21:22:34.926Z,97768.97
2023-03-04T21:25:02.801Z,97788.13
2023-03-04T21:27:32.031Z,97764.72
2023-03-04T21:30:00.175Z,97792.38
2023-03-04T21:32:29.217Z,97800.88
2023-03-04T21:34:57.318Z,97779.59
2023-03-04T21:37:26.497Z,97815.78
2023-03-04T21:39:54.429Z,97756.19
2023-03-04T21:42:22.506Z,97679.59
2023-03-04T21:44:52.288Z,97783.84
2023-03-04T21:47:37.732Z,97747.69
2023-03-04T21:50:07.661Z,97839.19
2023-03-04T21:52:35.466Z,97854.09
2023-03-04T21:55:03.372Z,97792.38
2023-03-04T21:57:33.437Z,97815.78
2023-03-04T22:00:03.733Z,97832.81
2023-03-04T22:02:33.129Z,97834.94
2023-03-04T22:05:00.875Z,97820.03
2023-03-04T22:07:30.717Z,97749.81
2023-03-04T22:09:59.742Z,97837.06
2023-03-04T22:12:27.653Z,97828.53
2023-03-04T22:14:55.552Z,97726.41
2023-03-04T22:17:31.831Z,97807.25
2023-03-04T22:19:59.702Z,97947.72
2023-03-04T22:22:30.488Z,97828.53
2023-03-04T22:25:00.161Z,97845.56
2023-03-04T22:27:33.048Z,97834.94
2023-03-04T22:30:03.776Z,97858.34
2023-03-04T22:32:34.878Z,97841.31
2023-03-04T22:35:02.746Z,97868.97
2023-03-04T22:37:30.665Z,97900.91
2023-03-04T22:39:58.943Z,97854.09
2023-03-04T22:42:26.820Z,97903.03
2023-03-04T22:44:55.658Z,97860.47
2023-03-04T22:47:24.021Z,97858.34
2023-03-04T22:49:53.248Z,97877.50
2023-03-04T22:52:21.022Z,97809.41
2023-03-04T22:54:51.493Z,97877.50
2023-03-04T22:57:20.074Z,97866.84
2023-03-04T22:59:49.140Z,97856.22
2023-03-04T23:02:17.034Z,97886.00
2023-03-04T23:04:54.107Z,97879.63
2023-03-04T23:07:23.358Z,97864.72
2023-03-04T23:09:51.259Z,97871.09
2023-03-04T23:12:19.286Z,97866.84
2023-03-04T23:14:47.196Z,97866.84
2023-03-04T23:17:19.994Z,97894.50
2023-03-04T23:19:51.201Z,97871.09
2023-03-04T23:22:19.013Z,97862.59
2023-03-04T23:24:48.876Z,97917.91
2023-03-04T23:27:16.920Z,97892.38
2023-03-04T23:29:44.726Z,97922.19
2023-03-04T23:32:12.780Z,97903.03
2023-03-04T23:34:40.779Z,97920.06
2023-03-04T23:37:08.799Z,97871.09
2023-03-04T23:39:36.665Z,97922.19
2023-03-04T23:42:06.216Z,97903.03
2023-03-04T23:44:34.085Z,97898.78
2023-03-04T23:47:01.883Z,97892.38
2023-03-04T23:49:29.925Z,97873.22
2023-03-04T23:51:57.762Z,97900.91
2023-03-04T23:54:25.615Z,97898.78
2023-03-04T23:56:53.734Z,97934.94
2023-03-04T23:59:22.980Z,97932.81
